Colchester, Illinois
Current Conditions -  °F | °C
As of 10:15 AM on Sunday 23 Nov 2014 (Local Time) from KMQB Reporting Station
Heavy Rain Heavy Rain  
Wind Chill: 51°   Ceiling: 4900
Heat Index: 51°   Visibility: 5mi
Dew Point: 49°   Wind: 13mph
Humidity: 93%   Direction: 160°SSE
Pressure: 29.62"   Gusts: 17mph
Location:  40.43°N, 90.79°W
Report Text: KMQB 231615Z AUTO 16011G15KT 5SM +RA SCT036 BKN049 OVC055 11/09 A2962 RMK AO2 P0002 T01050094
Loading
Personal Weather Stations






























Interactive Weather Map New forecast layout! Learn more

10-Day Weather Forecast

Advertisements
Track Severe Weather on mobile